Time;durP1;ratioP1;P1;durP2;ratioP2;P2;SDS_P1;SDS_P2;PMS_P1;PMS_P2;Temp;Humidity;BMP_temperature;BMP_pressure;BME280_temperature;BME280_humidity;BME280_pressure;Samples;Min_cycle;Max_cycle;Signal;HPM_P1;HPM_P2
2023/05/01 00:01:23;;;;;;;34.55;22.38;;;7.90;99.90;;;;;;5072571;28;20016;-59
2023/05/01 00:03:49;;;;;;;28.67;22.02;;;7.90;99.90;;;;;;5075868;28;20039;-59
2023/05/01 00:06:14;;;;;;;39.95;24.05;;;7.80;99.90;;;;;;5057790;28;20068;-59
2023/05/01 00:08:40;;;;;;;34.00;22.45;;;7.80;99.90;;;;;;5073517;28;20033;-59
2023/05/01 00:11:11;;;;;;;33.53;22.42;;;7.80;99.90;;;;;;5073663;28;20115;-59
2023/05/01 00:13:36;;;;;;;34.95;24.33;;;7.70;99.90;;;;;;5074097;28;20512;-58
2023/05/01 00:16:07;;;;;;;37.33;22.95;;;7.70;99.90;;;;;;5074716;28;20023;-59
2023/05/01 00:18:33;;;;;;;31.20;22.50;;;7.60;99.90;;;;;;5074903;28;20024;-59
2023/05/01 00:20:58;;;;;;;24.85;19.45;;;7.50;99.90;;;;;;5069237;28;20047;-58
2023/05/01 00:23:24;;;;;;;19.63;16.00;;;7.50;99.90;;;;;;5067582;28;20032;-58
2023/05/01 00:25:50;;;;;;;20.42;15.38;;;7.30;99.90;;;;;;5071242;28;20028;-57
2023/05/01 00:28:17;;;;;;;22.02;15.95;;;7.20;99.90;;;;;;5069390;28;20120;-59
2023/05/01 00:30:44;;;;;;;23.83;17.52;;;7.10;99.90;;;;;;5071934;28;20036;-58
2023/05/01 00:33:10;;;;;;;26.30;17.65;;;7.00;99.90;;;;;;5077273;28;20103;-59
2023/05/01 00:35:36;;;;;;;21.65;17.73;;;6.90;99.90;;;;;;5039457;28;20032;-59
2023/05/01 00:38:01;;;;;;;23.98;18.95;;;6.90;99.90;;;;;;5077200;28;20125;-58
2023/05/01 00:40:27;;;;;;;32.50;22.00;;;6.90;99.90;;;;;;5070778;28;20021;-59
2023/05/01 00:42:53;;;;;;;27.73;18.75;;;6.90;99.90;;;;;;5077380;28;20060;-58
2023/05/01 00:45:19;;;;;;;26.42;18.83;;;6.80;99.90;;;;;;5075736;28;20024;-58
2023/05/01 00:47:45;;;;;;;25.95;17.98;;;6.80;99.90;;;;;;5073448;28;20140;-59
2023/05/01 00:50:12;;;;;;;26.55;17.80;;;6.70;99.90;;;;;;5074534;28;20036;-59
2023/05/01 00:52:38;;;;;;;22.73;17.17;;;6.70;99.90;;;;;;5072826;28;20570;-59
2023/05/01 00:55:04;;;;;;;22.58;18.48;;;6.60;99.90;;;;;;5074061;28;20107;-59
2023/05/01 00:57:31;;;;;;;22.42;17.20;;;6.50;99.90;;;;;;5069224;28;20427;-58
2023/05/01 00:59:57;;;;;;;28.08;19.65;;;6.40;99.90;;;;;;5072521;28;20415;-59
2023/05/01 01:02:23;;;;;;;23.42;19.30;;;6.30;99.90;;;;;;5056317;28;20024;-59
2023/05/01 01:04:49;;;;;;;24.27;19.48;;;6.30;99.90;;;;;;5072522;28;20508;-58
2023/05/01 01:07:22;;;;;;;29.77;19.75;;;6.30;99.90;;;;;;5071221;28;20047;-59
2023/05/01 01:10:23;;;;;;;30.98;19.77;;;6.20;99.90;;;;;;5070532;28;20029;-60
2023/05/01 01:13:10;;;;;;;31.05;19.27;;;6.20;99.90;;;;;;5050334;28;20032;-60
2023/05/01 01:16:00;;;;;;;37.15;20.48;;;6.10;99.90;;;;;;5071591;28;20028;-61
2023/05/01 01:18:39;;;;;;;29.42;20.05;;;6.10;99.90;;;;;;5074805;28;20086;-60
2023/05/01 01:21:38;;;;;;;27.85;20.15;;;6.00;99.90;;;;;;5071458;28;20028;-59
2023/05/01 01:24:10;;;;;;;26.17;20.83;;;6.00;99.90;;;;;;5073470;28;20020;-58
2023/05/01 01:27:20;;;;;;;30.27;22.65;;;5.90;99.90;;;;;;5072540;28;20095;-60
2023/05/01 01:30:24;;;;;;;33.97;22.02;;;5.90;99.90;;;;;;5036777;28;20024;-59
2023/05/01 01:33:00;;;;;;;30.63;22.17;;;5.80;99.90;;;;;;5071988;28;20032;-59
2023/05/01 01:35:28;;;;;;;31.73;22.75;;;5.80;99.90;;;;;;5073877;28;20036;-59
2023/05/01 01:38:01;;;;;;;32.40;23.48;;;5.80;99.90;;;;;;5073487;28;20492;-59
2023/05/01 01:40:34;;;;;;;34.88;23.13;;;5.80;99.90;;;;;;5078976;28;20047;-60
2023/05/01 01:43:19;;;;;;;31.52;23.27;;;5.70;99.90;;;;;;5073356;28;20112;-60
2023/05/01 01:45:59;;;;;;;35.40;26.25;;;5.70;99.90;;;;;;5075769;28;20522;-60
2023/05/01 01:48:30;;;;;;;35.08;23.08;;;5.70;99.90;;;;;;5077181;28;20119;-59
2023/05/01 01:50:56;;;;;;;;;;;5.60;99.90;;;;;;5080891;28;20051;-59
2023/05/01 01:53:25;;;;;;;35.22;24.45;;;5.60;99.90;;;;;;5078710;28;19912;-60
2023/05/01 01:55:52;;;;;;;31.98;23.27;;;5.60;99.90;;;;;;5081026;28;20384;-58
2023/05/01 01:58:24;;;;;;;32.15;22.77;;;5.50;99.90;;;;;;5078679;28;20059;-59
2023/05/01 02:00:52;;;;;;;33.17;23.10;;;5.50;99.90;;;;;;5079634;28;20530;-59
2023/05/01 02:03:19;;;;;;;35.72;23.00;;;5.50;99.90;;;;;;5076597;28;20028;-58
2023/05/01 02:05:47;;;;;;;32.60;21.58;;;5.50;99.90;;;;;;5078541;28;20032;-59
2023/05/01 02:08:14;;;;;;;32.40;21.15;;;5.50;99.90;;;;;;5078570;28;20048;-58
2023/05/01 02:10:42;;;;;;;35.05;23.70;;;5.50;99.90;;;;;;5078081;28;20024;-60
2023/05/01 02:13:08;;;;;;;32.50;22.95;;;5.50;99.90;;;;;;5075115;28;20048;-59
2023/05/01 02:15:35;;;;;;;34.90;22.58;;;5.50;99.90;;;;;;5059406;28;20024;-59
2023/05/01 02:18:05;;;;;;;26.63;23.50;;;5.40;99.90;;;;;;5072209;28;20637;-58
2023/05/01 02:20:32;;;;;;;27.75;22.10;;;5.40;99.90;;;;;;5071016;28;20122;-58
2023/05/01 02:22:58;;;;;;;38.50;23.30;;;5.40;99.90;;;;;;5076595;28;20508;-59
2023/05/01 02:25:29;;;;;;;29.98;22.88;;;5.40;99.90;;;;;;5077200;28;20024;-59
2023/05/01 02:27:56;;;;;;;30.30;23.30;;;5.40;99.90;;;;;;5071751;28;20025;-59
2023/05/01 02:30:22;;;;;;;31.35;22.60;;;5.40;99.90;;;;;;5076204;28;20025;-59
2023/05/01 02:32:48;;;;;;;36.80;23.60;;;5.40;99.90;;;;;;5076718;28;20028;-59
2023/05/01 02:35:15;;;;;;;30.02;22.48;;;5.30;99.90;;;;;;5058247;28;20496;-60
2023/05/01 02:37:42;;;;;;;30.88;22.63;;;5.40;99.90;;;;;;5077539;28;20024;-59
2023/05/01 02:40:10;;;;;;;32.65;23.85;;;5.30;99.90;;;;;;5077167;28;20525;-59
2023/05/01 02:42:37;;;;;;;29.17;23.00;;;5.30;99.90;;;;;;5076054;28;20067;-59
2023/05/01 02:45:06;;;;;;;32.22;22.95;;;5.30;99.90;;;;;;5070384;28;20028;-59
2023/05/01 02:47:36;;;;;;;34.25;22.52;;;5.30;99.90;;;;;;5077054;28;20115;-60
2023/05/01 02:50:02;;;;;;;34.00;22.23;;;5.20;99.90;;;;;;5076667;28;20499;-60
2023/05/01 02:52:29;;;;;;;31.00;23.35;;;5.20;99.90;;;;;;5070705;28;20387;-57
2023/05/01 02:54:55;;;;;;;38.25;23.85;;;5.20;99.90;;;;;;5074401;28;20031;-60
2023/05/01 02:57:21;;;;;;;36.97;22.67;;;5.20;99.90;;;;;;5074932;28;20032;-61
2023/05/01 02:59:47;;;;;;;34.15;23.23;;;5.10;99.90;;;;;;5076532;28;20388;-61
2023/05/01 03:02:14;;;;;;;28.35;22.08;;;5.10;99.90;;;;;;5070411;28;20028;-59
2023/05/01 03:04:40;;;;;;;36.13;22.95;;;5.10;99.90;;;;;;5071234;28;20035;-60
2023/05/01 03:07:07;;;;;;;29.88;23.05;;;5.10;99.90;;;;;;5078847;28;20460;-60
2023/05/01 03:09:33;;;;;;;38.03;25.17;;;5.00;99.90;;;;;;5076236;28;20459;-60
2023/05/01 03:11:58;;;;;;;28.75;22.60;;;5.00;99.90;;;;;;5055832;28;20111;-60
2023/05/01 03:14:24;;;;;;;24.20;20.75;;;4.90;99.90;;;;;;5071694;28;20035;-61
2023/05/01 03:16:50;;;;;;;27.38;21.98;;;4.80;99.90;;;;;;5075949;28;20020;-60
2023/05/01 03:19:15;;;;;;;27.35;22.35;;;4.80;99.90;;;;;;5078398;28;20028;-60
2023/05/01 03:21:41;;;;;;;26.45;22.40;;;4.70;99.90;;;;;;5075080;28;20060;-60
2023/05/01 03:24:07;;;;;;;32.38;23.40;;;4.70;99.90;;;;;;5076902;28;20473;-61
2023/05/01 03:26:32;;;;;;;33.20;21.58;;;4.70;99.90;;;;;;5070631;28;20536;-61
2023/05/01 03:28:58;;;;;;;29.95;21.60;;;4.70;99.90;;;;;;5076213;28;20036;-60
2023/05/01 03:31:24;;;;;;;33.08;24.20;;;4.60;99.90;;;;;;5076612;28;20055;-60
2023/05/01 03:33:49;;;;;;;32.05;23.13;;;4.60;99.90;;;;;;5076686;28;20108;-60
2023/05/01 03:36:15;;;;;;;35.58;22.90;;;4.60;99.90;;;;;;5073196;28;20024;-60
2023/05/01 03:38:41;;;;;;;33.70;22.17;;;4.60;99.90;;;;;;5071356;28;20035;-61
2023/05/01 03:41:07;;;;;;;24.58;21.58;;;4.60;99.90;;;;;;5072507;28;20044;-61
2023/05/01 03:43:33;;;;;;;32.47;22.80;;;4.50;99.90;;;;;;5075000;28;20017;-60
2023/05/01 03:45:59;;;;;;;29.00;22.13;;;4.50;99.90;;;;;;5057626;28;20047;-60
2023/05/01 03:48:24;;;;;;;31.50;22.33;;;4.40;99.90;;;;;;5076174;28;20496;-61
2023/05/01 03:50:51;;;;;;;33.70;23.00;;;4.40;99.90;;;;;;5073810;28;20549;-61
2023/05/01 03:53:17;;;;;;;36.38;24.08;;;4.40;99.90;;;;;;5075525;28;20039;-61
2023/05/01 03:55:43;;;;;;;29.33;22.13;;;4.40;99.90;;;;;;5075119;28;20056;-61
2023/05/01 03:58:09;;;;;;;28.80;22.27;;;4.40;99.90;;;;;;5071951;28;20040;-61
2023/05/01 04:00:35;;;;;;;26.58;22.02;;;4.40;99.90;;;;;;5076639;28;20032;-60
2023/05/01 04:03:01;;;;;;;32.15;23.63;;;4.50;99.90;;;;;;5071544;28;20443;-60
2023/05/01 04:05:27;;;;;;;35.35;21.70;;;4.40;99.90;;;;;;5074023;28;20037;-61
2023/05/01 04:07:53;;;;;;;23.90;21.23;;;4.50;99.90;;;;;;5077326;28;20020;-61
2023/05/01 04:10:18;;;;;;;31.73;22.42;;;4.50;99.90;;;;;;5075695;28;20103;-59
2023/05/01 04:12:44;;;;;;;30.77;21.45;;;4.50;99.90;;;;;;5073688;28;20032;-61
2023/05/01 04:15:10;;;;;;;32.05;20.38;;;4.50;99.90;;;;;;5072593;28;20101;-60
2023/05/01 04:17:36;;;;;;;34.05;21.67;;;4.50;99.90;;;;;;5074137;28;20389;-60
2023/05/01 04:20:04;;;;;;;29.83;24.08;;;4.50;99.90;;;;;;5075529;28;20086;-60
2023/05/01 04:22:30;;;;;;;26.05;21.05;;;4.50;99.90;;;;;;5074555;28;20021;-60
2023/05/01 04:24:56;;;;;;;29.00;22.90;;;4.40;99.90;;;;;;5073383;28;20421;-61
2023/05/01 04:27:21;;;;;;;31.70;22.05;;;4.50;99.90;;;;;;5071581;28;20032;-62
2023/05/01 04:29:47;;;;;;;27.60;23.60;;;4.50;99.90;;;;;;5072180;28;20027;-60
2023/05/01 04:32:13;;;;;;;33.47;23.38;;;4.50;99.90;;;;;;5054789;28;20096;-60
2023/05/01 04:34:38;;;;;;;27.13;23.33;;;4.50;99.90;;;;;;5073018;28;20036;-60
2023/05/01 04:37:06;;;;;;;28.15;22.33;;;4.60;99.90;;;;;;5073856;28;20345;-62
2023/05/01 04:39:32;;;;;;;31.25;23.70;;;4.60;99.90;;;;;;5073412;28;20040;-61
2023/05/01 04:41:57;;;;;;;31.17;22.95;;;4.70;99.90;;;;;;5073358;28;20184;-62
2023/05/01 04:44:23;;;;;;;33.35;22.30;;;4.70;99.90;;;;;;5040320;28;20059;-61
2023/05/01 04:46:49;;;;;;;25.63;20.50;;;4.80;99.90;;;;;;5076003;28;20031;-62
2023/05/01 04:49:15;;;;;;;27.13;21.33;;;4.80;99.90;;;;;;5075182;28;20036;-60
2023/05/01 04:51:40;;;;;;;33.20;21.25;;;4.80;99.90;;;;;;5076501;28;20615;-60
2023/05/01 04:54:06;;;;;;;28.65;21.23;;;4.90;99.90;;;;;;5075278;28;20040;-61
2023/05/01 04:56:32;;;;;;;31.75;21.33;;;4.90;99.90;;;;;;5073277;28;20032;-61
2023/05/01 04:58:58;;;;;;;30.77;20.83;;;5.00;99.90;;;;;;5075940;28;20039;-62
2023/05/01 05:01:23;;;;;;;26.52;21.58;;;5.00;99.90;;;;;;5075490;28;20139;-61
2023/05/01 05:03:49;;;;;;;25.02;20.00;;;5.10;99.90;;;;;;5071903;28;20028;-59
2023/05/01 05:06:14;;;;;;;30.83;21.25;;;5.10;99.90;;;;;;5070614;28;20464;-58
2023/05/01 05:08:41;;;;;;;30.80;23.25;;;5.20;99.90;;;;;;5077310;28;20116;-58
2023/05/01 05:11:06;;;;;;;26.98;20.73;;;5.20;99.90;;;;;;5081558;28;20151;-60
2023/05/01 05:13:32;;;;;;;25.10;20.92;;;5.30;99.90;;;;;;5081336;28;20103;-61
2023/05/01 05:15:57;;;;;;;26.17;20.25;;;5.30;99.90;;;;;;5077288;28;20068;-60
2023/05/01 05:18:23;;;;;;;25.30;20.33;;;5.40;99.90;;;;;;5079407;28;20403;-60
2023/05/01 05:20:49;;;;;;;24.88;20.40;;;5.40;99.90;;;;;;5076661;28;20564;-60
2023/05/01 05:23:15;;;;;;;30.65;19.95;;;5.50;99.90;;;;;;5080509;28;20043;-61
2023/05/01 05:25:40;;;;;;;32.15;21.15;;;5.50;99.90;;;;;;5081000;28;20025;-60
2023/05/01 05:28:06;;;;;;;27.42;21.33;;;5.70;99.90;;;;;;5080943;28;20024;-60
2023/05/01 05:30:31;;;;;;;31.65;21.38;;;5.80;99.90;;;;;;5081323;28;20024;-60
2023/05/01 05:32:57;;;;;;;25.65;20.25;;;5.90;99.90;;;;;;5079654;28;20028;-60
2023/05/01 05:35:23;;;;;;;24.90;20.63;;;6.10;99.90;;;;;;5079783;28;20025;-60
2023/05/01 05:37:49;;;;;;;26.15;20.58;;;6.10;99.90;;;;;;5080462;28;20547;-59
2023/05/01 05:40:15;;;;;;;28.80;20.83;;;6.10;99.90;;;;;;5079671;28;20020;-60
2023/05/01 05:42:40;;;;;;;27.75;21.08;;;6.10;99.90;;;;;;5079575;28;20562;-60
2023/05/01 05:45:06;;;;;;;31.23;20.50;;;6.10;99.90;;;;;;5077048;28;20045;-60
2023/05/01 05:47:32;;;;;;;30.45;21.38;;;6.20;99.90;;;;;;5077511;28;20035;-61
2023/05/01 05:49:58;;;;;;;33.75;23.50;;;6.10;99.90;;;;;;5079397;28;20032;-60
2023/05/01 05:52:23;;;;;;;27.35;21.92;;;6.20;99.90;;;;;;5080232;28;20819;-61
2023/05/01 05:54:49;;;;;;;24.63;21.30;;;6.30;99.90;;;;;;5076443;28;20047;-60
2023/05/01 05:57:15;;;;;;;23.23;20.30;;;6.40;99.90;;;;;;5080999;28;20780;-61
2023/05/01 05:59:40;;;;;;;28.55;21.73;;;6.50;99.90;;;;;;5080436;28;20032;-60
2023/05/01 06:02:06;;;;;;;23.88;20.92;;;6.60;99.90;;;;;;5079217;28;20533;-60
2023/05/01 06:04:32;;;;;;;24.45;20.88;;;6.80;99.90;;;;;;5077196;28;20433;-60
2023/05/01 06:06:58;;;;;;;27.23;19.52;;;6.90;99.90;;;;;;5077599;28;20028;-61
2023/05/01 06:09:25;;;;;;;29.45;21.20;;;7.10;99.90;;;;;;5076112;28;20031;-60
2023/05/01 06:11:50;;;;;;;25.23;20.05;;;7.20;99.90;;;;;;5059285;28;20032;-60
2023/05/01 06:14:16;;;;;;;21.27;19.08;;;7.40;99.90;;;;;;5080390;28;20020;-60
2023/05/01 06:16:42;;;;;;;31.45;19.50;;;7.50;99.90;;;;;;5081260;28;20032;-60
2023/05/01 06:19:09;;;;;;;25.83;19.90;;;7.70;99.90;;;;;;5078863;28;20056;-60
2023/05/01 06:21:35;;;;;;;27.50;18.33;;;7.80;99.90;;;;;;5075123;28;20111;-62
2023/05/01 06:24:00;;;;;;;21.75;18.70;;;7.90;99.90;;;;;;5075632;28;20131;-60
2023/05/01 06:26:27;;;;;;;18.00;15.52;;;8.00;99.90;;;;;;5071245;28;20036;-60
2023/05/01 06:28:53;;;;;;;20.95;16.38;;;8.10;99.90;;;;;;5075085;28;20024;-60
2023/05/01 06:31:19;;;;;;;17.23;14.52;;;8.20;99.90;;;;;;5074476;28;20028;-60
2023/05/01 06:33:45;;;;;;;25.40;16.02;;;8.20;99.90;;;;;;5072847;28;20083;-60
2023/05/01 06:36:11;;;;;;;19.83;17.02;;;8.30;99.90;;;;;;5076149;28;20036;-60
2023/05/01 06:38:36;;;;;;;22.50;17.50;;;8.30;99.90;;;;;;5073778;28;20744;-60
2023/05/01 06:41:04;;;;;;;19.40;17.48;;;8.40;99.90;;;;;;5074572;28;20035;-60
2023/05/01 06:43:30;;;;;;;20.63;14.95;;;8.50;99.90;;;;;;5074422;28;20028;-61
2023/05/01 06:45:56;;;;;;;16.92;13.48;;;8.60;99.90;;;;;;5075333;28;20035;-61
2023/05/01 06:48:22;;;;;;;17.25;15.23;;;8.80;99.90;;;;;;5076399;28;20052;-60
2023/05/01 06:50:48;;;;;;;16.98;14.88;;;8.90;99.90;;;;;;5075394;28;20397;-60
2023/05/01 06:53:14;;;;;;;16.27;14.40;;;9.00;99.90;;;;;;5074751;28;20033;-60
2023/05/01 06:55:39;;;;;;;16.92;13.75;;;9.20;99.90;;;;;;5076318;28;20024;-59
2023/05/01 06:58:05;;;;;;;19.40;13.80;;;9.30;99.90;;;;;;5073154;28;20044;-60
2023/05/01 07:00:32;;;;;;;20.35;14.85;;;9.40;99.90;;;;;;5071562;28;20042;-59
2023/05/01 07:02:58;;;;;;;15.30;13.20;;;9.60;99.90;;;;;;5053322;28;20111;-60
2023/05/01 07:05:26;;;;;;;13.77;12.38;;;9.80;99.90;;;;;;5076076;28;20120;-60
2023/05/01 07:07:52;;;;;;;14.25;12.80;;;10.00;99.90;;;;;;5072832;28;20036;-58
2023/05/01 07:10:18;;;;;;;14.70;10.90;;;10.20;99.90;;;;;;5078443;28;20411;-56
2023/05/01 07:12:46;;;;;;;11.23;10.13;;;10.40;99.90;;;;;;5073328;28;20510;-58
2023/05/01 07:15:15;;;;;;;11.50;8.77;;;10.60;99.90;;;;;;5075563;28;20033;-55
2023/05/01 07:17:41;;;;;;;10.65;8.68;;;10.80;99.90;;;;;;5055320;28;20039;-56
2023/05/01 07:20:09;;;;;;;11.48;8.23;;;11.10;99.90;;;;;;5057922;28;20531;-58
2023/05/01 07:22:34;;;;;;;9.15;8.25;;;11.30;99.90;;;;;;5072579;28;20025;-58
2023/05/01 07:25:02;;;;;;;9.95;7.45;;;11.50;99.90;;;;;;5071995;28;20031;-58
2023/05/01 07:27:27;;;;;;;7.60;6.90;;;11.60;99.90;;;;;;5071158;28;20017;-58
2023/05/01 07:29:55;;;;;;;8.55;7.75;;;11.80;99.90;;;;;;5072098;28;20031;-58
2023/05/01 07:32:21;;;;;;;14.18;8.07;;;11.90;99.90;;;;;;5071978;28;20561;-59
2023/05/01 07:34:46;;;;;;;8.60;6.85;;;12.10;99.90;;;;;;5074573;28;20034;-58
2023/05/01 07:37:12;;;;;;;8.75;6.82;;;12.30;99.90;;;;;;5077795;28;20033;-58
2023/05/01 07:39:38;;;;;;;10.50;6.55;;;12.40;99.90;;;;;;5073521;28;20040;-58
2023/05/01 07:42:03;;;;;;;8.60;7.80;;;12.50;99.70;;;;;;5073742;28;20060;-59
2023/05/01 07:44:29;;;;;;;6.95;6.25;;;12.70;99.90;;;;;;5071042;28;20066;-58
2023/05/01 07:47:01;;;;;;;7.95;7.18;;;12.70;97.00;;;;;;5074816;28;20765;-59
2023/05/01 07:49:26;;;;;;;7.80;7.03;;;12.90;99.90;;;;;;5076432;28;20032;-60
2023/05/01 07:51:54;;;;;;;8.45;6.28;;;13.00;94.40;;;;;;5077166;28;20028;-58
2023/05/01 07:54:21;;;;;;;8.52;7.22;;;13.20;94.90;;;;;;5075631;28;20031;-60
2023/05/01 07:56:47;;;;;;;8.05;6.78;;;13.20;93.70;;;;;;5074527;28;20025;-60
2023/05/01 07:59:14;;;;;;;7.95;6.00;;;13.20;93.00;;;;;;5072802;28;20489;-59
2023/05/01 08:01:40;;;;;;;7.72;6.75;;;13.40;91.80;;;;;;5079059;28;20024;-59
2023/05/01 08:04:06;;;;;;;10.77;7.40;;;13.60;93.40;;;;;;5078041;28;20177;-61
2023/05/01 08:06:32;;;;;;;8.13;7.38;;;13.80;93.90;;;;;;5074567;28;20129;-58
2023/05/01 08:08:57;;;;;;;10.30;7.57;;;14.00;89.10;;;;;;5079434;28;20595;-59
2023/05/01 08:11:25;;;;;;;9.48;6.57;;;14.10;93.10;;;;;;5072505;28;20036;-59
2023/05/01 08:13:51;;;;;;;9.13;8.02;;;14.30;93.00;;;;;;5055670;28;20016;-59
2023/05/01 08:16:18;;;;;;;9.43;6.68;;;14.40;92.60;;;;;;5077510;28;20023;-58
2023/05/01 08:18:45;;;;;;;7.50;6.25;;;14.50;92.10;;;;;;5074729;28;20021;-59
2023/05/01 08:21:11;;;;;;;9.82;6.20;;;14.60;87.50;;;;;;5076266;28;20032;-56
2023/05/01 08:23:36;;;;;;;6.90;6.10;;;14.70;84.60;;;;;;5074021;28;20035;-58
2023/05/01 08:26:02;;;;;;;8.23;5.43;;;14.80;90.40;;;;;;5074131;28;20114;-56
2023/05/01 08:28:28;;;;;;;7.53;5.72;;;15.00;89.20;;;;;;5071659;28;20029;-60
2023/05/01 08:30:54;;;;;;;9.85;5.63;;;15.10;85.90;;;;;;5075528;28;20500;-58
2023/05/01 08:33:19;;;;;;;7.70;5.20;;;15.30;85.00;;;;;;5075279;28;20095;-59
2023/05/01 08:35:45;;;;;;;5.85;5.28;;;15.40;83.50;;;;;;5078059;28;20475;-59
2023/05/01 08:38:11;;;;;;;6.93;5.55;;;15.60;85.30;;;;;;5069356;28;20136;-60
2023/05/01 08:40:37;;;;;;;5.78;5.22;;;15.80;82.70;;;;;;5071618;28;20016;-60
2023/05/01 08:43:03;;;;;;;6.80;6.00;;;15.90;81.70;;;;;;5074008;28;20372;-58
2023/05/01 08:45:36;;;;;;;7.28;6.57;;;15.80;84.30;;;;;;5073201;28;20036;-59
2023/05/01 08:48:06;;;;;;;8.02;6.35;;;15.80;86.80;;;;;;5071955;28;20036;-58
2023/05/01 08:50:35;;;;;;;7.88;6.53;;;15.80;80.40;;;;;;5073115;28;20120;-58
2023/05/01 08:53:02;;;;;;;6.75;6.07;;;15.90;78.60;;;;;;5075879;28;20024;-59
2023/05/01 08:55:30;;;;;;;6.90;5.70;;;16.10;78.50;;;;;;5075970;28;20594;-58
2023/05/01 08:57:57;;;;;;;8.73;5.60;;;16.30;80.60;;;;;;5073516;28;20043;-59
2023/05/01 09:00:24;;;;;;;7.82;6.47;;;16.30;74.30;;;;;;5073080;28;20028;-59
2023/05/01 09:02:50;;;;;;;7.95;6.15;;;16.30;77.00;;;;;;5073897;28;20086;-60
2023/05/01 09:05:19;;;;;;;7.60;5.93;;;16.50;78.10;;;;;;5072776;28;20474;-58
2023/05/01 09:07:46;;;;;;;8.48;5.38;;;16.70;77.50;;;;;;5075501;28;20024;-60
2023/05/01 09:10:14;;;;;;;6.80;5.63;;;17.40;79.10;;;;;;5078100;28;20032;-60
2023/05/01 09:12:43;;;;;;;7.70;5.10;;;18.60;76.40;;;;;;5072083;28;20036;-58
2023/05/01 09:15:10;;;;;;;4.57;4.18;;;19.80;68.60;;;;;;5074980;28;20560;-61
2023/05/01 09:17:36;;;;;;;5.35;4.38;;;20.90;65.50;;;;;;5069556;28;20036;-60
2023/05/01 09:20:06;;;;;;;5.10;4.60;;;20.80;65.20;;;;;;5069511;28;20063;-60
2023/05/01 09:22:33;;;;;;;5.53;4.38;;;20.60;63.50;;;;;;5071559;28;20038;-61
2023/05/01 09:24:59;;;;;;;4.80;4.35;;;20.10;63.70;;;;;;5075917;28;20032;-59
2023/05/01 09:27:26;;;;;;;5.93;4.47;;;20.10;64.80;;;;;;5074074;28;20025;-58
2023/05/01 09:29:52;;;;;;;5.47;4.15;;;20.60;62.50;;;;;;5074102;28;20035;-61
2023/05/01 09:32:19;;;;;;;5.47;4.47;;;20.70;68.70;;;;;;5074922;28;20032;-59
2023/05/01 09:34:46;;;;;;;6.45;4.22;;;20.30;62.10;;;;;;5073952;28;20112;-60
2023/05/01 09:37:28;;;;;;;5.95;4.43;;;20.10;65.40;;;;;;5075883;28;20028;-60
2023/05/01 09:40:13;;;;;;;5.25;4.72;;;19.90;65.70;;;;;;5073049;28;20040;-59
2023/05/01 09:42:50;;;;;;;6.40;4.82;;;19.30;68.80;;;;;;5070926;28;20068;-59
2023/05/01 09:45:17;;;;;;;5.90;4.97;;;18.90;70.50;;;;;;5076147;28;20512;-61
2023/05/01 09:47:44;;;;;;;5.32;4.82;;;18.80;69.40;;;;;;5072902;28;20032;-59
2023/05/01 09:50:27;;;;;;;5.10;3.90;;;18.90;69.90;;;;;;5054435;28;20664;-60
2023/05/01 09:52:52;;;;;;;4.80;4.05;;;19.00;65.30;;;;;;5073987;28;20032;-59
2023/05/01 09:55:18;;;;;;;4.35;3.95;;;19.70;65.60;;;;;;5051116;28;20032;-59
2023/05/01 09:57:45;;;;;;;4.45;3.47;;;20.40;63.60;;;;;;5074785;28;20033;-59
2023/05/01 10:00:14;;;;;;;9.75;4.03;;;20.80;62.00;;;;;;5061866;28;20060;-61
2023/05/01 10:02:46;;;;;;;5.32;3.85;;;20.50;60.10;;;;;;5072955;28;20036;-58
2023/05/01 10:05:12;;;;;;;4.82;3.42;;;20.70;62.00;;;;;;5080328;28;20043;-60
2023/05/01 10:07:39;;;;;;;6.18;3.38;;;20.80;63.80;;;;;;5077606;28;20024;-61
2023/05/01 10:10:24;;;;;;;4.10;3.38;;;20.40;57.80;;;;;;5075381;28;20024;-56
2023/05/01 10:12:50;;;;;;;7.28;3.40;;;20.60;56.40;;;;;;5077113;28;20075;-59
2023/05/01 10:15:16;;;;;;;4.28;2.90;;;21.10;63.50;;;;;;5076375;28;20667;-58
2023/05/01 10:17:43;;;;;;;3.58;2.85;;;21.10;58.80;;;;;;5077104;28;20031;-60
2023/05/01 10:20:11;;;;;;;3.40;2.30;;;21.20;58.90;;;;;;5075553;28;20056;-59
2023/05/01 10:22:37;;;;;;;4.25;2.95;;;21.10;60.40;;;;;;5077918;28;20028;-59
2023/05/01 10:25:06;;;;;;;3.60;2.35;;;21.10;59.70;;;;;;5076621;28;20511;-58
2023/05/01 10:27:33;;;;;;;5.72;2.67;;;20.60;60.00;;;;;;5075379;28;20040;-58
2023/05/01 10:30:03;;;;;;;3.53;2.63;;;20.30;60.70;;;;;;5074526;28;20036;-60
2023/05/01 10:32:31;;;;;;;5.33;2.20;;;20.20;60.90;;;;;;5071735;28;20032;-59
2023/05/01 10:35:10;;;;;;;3.10;2.47;;;20.40;58.00;;;;;;5076537;28;20516;-59
2023/05/01 10:37:57;;;;;;;4.70;2.72;;;20.10;61.40;;;;;;5071807;28;20016;-60
2023/05/01 10:40:50;;;;;;;3.15;2.80;;;19.90;65.20;;;;;;5072853;28;20194;-60
2023/05/01 10:43:27;;;;;;;3.55;3.25;;;19.60;63.50;;;;;;5076969;28;20043;-58
2023/05/01 10:45:54;;;;;;;3.45;2.67;;;19.40;63.40;;;;;;5081379;28;20032;-59
2023/05/01 10:48:46;;;;;;;2.95;2.50;;;19.50;62.90;;;;;;5077796;28;20173;-59
2023/05/01 10:51:14;;;;;;;3.85;2.70;;;19.60;57.30;;;;;;5076154;28;20064;-60
2023/05/01 10:53:42;;;;;;;3.60;2.50;;;19.70;60.00;;;;;;5077948;28;20420;-59
2023/05/01 10:56:26;;;;;;;2.78;1.98;;;19.60;61.00;;;;;;5064156;28;20116;-58
2023/05/01 10:58:56;;;;;;;3.30;3.00;;;19.40;63.90;;;;;;5076635;28;20027;-58
2023/05/01 11:01:31;;;;;;;3.78;2.35;;;19.30;65.70;;;;;;5076618;28;20027;-59
2023/05/01 11:04:06;;;;;;;3.03;2.40;;;19.10;65.70;;;;;;5079636;28;20032;-58
2023/05/01 11:06:33;;;;;;;5.35;2.95;;;19.00;63.60;;;;;;5073912;28;20032;-58
2023/05/01 11:08:59;;;;;;;2.90;2.70;;;18.90;61.30;;;;;;5076224;28;20071;-59
2023/05/01 11:11:25;;;;;;;3.67;3.22;;;19.00;62.70;;;;;;5075087;28;20060;-59
2023/05/01 11:13:59;;;;;;;4.25;2.75;;;19.00;61.30;;;;;;5075672;28;20059;-60
2023/05/01 11:16:36;;;;;;;3.42;2.88;;;19.20;62.40;;;;;;5073774;28;20036;-60
2023/05/01 11:19:22;;;;;;;3.72;2.78;;;19.20;66.10;;;;;;5071403;28;20090;-60
2023/05/01 11:21:49;;;;;;;3.63;2.20;;;19.30;60.10;;;;;;5074798;28;20058;-60
2023/05/01 11:24:17;;;;;;;3.83;2.75;;;19.30;66.40;;;;;;5059383;28;20501;-57
2023/05/01 11:26:43;;;;;;;3.20;2.65;;;19.20;66.40;;;;;;5072315;28;20115;-60
2023/05/01 11:29:10;;;;;;;2.58;2.38;;;19.30;61.70;;;;;;5075883;28;20063;-60
2023/05/01 11:31:37;;;;;;;4.72;2.65;;;19.50;61.50;;;;;;5069842;28;20033;-60
2023/05/01 11:34:03;;;;;;;4.60;2.25;;;19.50;60.00;;;;;;5075916;28;20432;-59
2023/05/01 11:36:46;;;;;;;2.35;1.98;;;19.40;60.90;;;;;;5072527;28;20040;-61
2023/05/01 11:39:16;;;;;;;3.17;1.95;;;19.30;63.30;;;;;;5071081;28;20040;-60
2023/05/01 11:41:41;;;;;;;3.47;2.53;;;19.40;59.10;;;;;;5072222;28;20119;-60
2023/05/01 11:44:07;;;;;;;3.25;2.42;;;19.30;58.70;;;;;;5074327;28;20538;-59
2023/05/01 11:46:32;;;;;;;2.05;1.83;;;19.10;61.40;;;;;;5073822;28;20028;-60
2023/05/01 11:49:00;;;;;;;2.95;2.60;;;18.80;65.30;;;;;;5056845;28;20049;-58
2023/05/01 11:51:27;;;;;;;3.38;2.25;;;18.50;66.30;;;;;;5076038;28;20059;-59
2023/05/01 11:54:05;;;;;;;4.30;2.03;;;18.40;64.90;;;;;;5074089;28;20032;-60
2023/05/01 11:56:33;;;;;;;2.60;2.15;;;18.40;68.50;;;;;;5074409;28;20086;-58
2023/05/01 11:59:15;;;;;;;3.83;2.42;;;18.30;66.90;;;;;;5074045;28;20128;-58
2023/05/01 12:01:43;;;;;;;5.85;3.13;;;18.10;66.90;;;;;;5075812;28;20050;-59
2023/05/01 12:04:10;;;;;;;3.78;2.38;;;18.00;62.90;;;;;;5058629;28;20020;-60
2023/05/01 12:06:43;;;;;;;5.53;2.63;;;17.90;62.40;;;;;;5069631;28;20071;-59
2023/05/01 12:09:19;;;;;;;3.08;2.22;;;17.90;63.40;;;;;;5076634;28;20420;-59
2023/05/01 12:11:47;;;;;;;2.67;2.40;;;17.90;61.50;;;;;;5075190;28;20068;-57
2023/05/01 12:14:14;;;;;;;3.47;2.53;;;17.80;69.80;;;;;;5074198;28;20102;-56
2023/05/01 12:16:41;;;;;;;5.72;2.88;;;17.80;63.00;;;;;;5071609;28;20450;-58
2023/05/01 12:19:07;;;;;;;5.40;2.70;;;17.80;71.40;;;;;;5074253;28;20025;-58
2023/05/01 12:21:33;;;;;;;2.40;2.20;;;17.70;71.10;;;;;;5074990;28;20132;-60
2023/05/01 12:24:10;;;;;;;2.92;2.20;;;17.60;70.80;;;;;;5077231;28;20060;-60
2023/05/01 12:26:36;;;;;;;3.08;2.78;;;17.60;66.60;;;;;;5072468;28;20048;-60
2023/05/01 12:29:07;;;;;;;2.83;2.55;;;17.60;70.90;;;;;;5066240;28;20039;-58
2023/05/01 12:31:34;;;;;;;3.35;2.78;;;17.50;70.00;;;;;;5068810;28;20028;-57
2023/05/01 12:34:02;;;;;;;3.50;2.63;;;17.40;70.20;;;;;;5074802;28;20036;-60
2023/05/01 12:36:30;;;;;;;3.80;2.60;;;17.40;65.20;;;;;;5073646;28;20036;-59
2023/05/01 12:39:05;;;;;;;5.75;2.97;;;17.50;67.00;;;;;;5072858;28;20033;-59
2023/05/01 12:41:41;;;;;;;3.92;2.78;;;17.50;63.90;;;;;;5071708;28;20029;-56
2023/05/01 12:44:23;;;;;;;3.15;2.85;;;17.60;66.50;;;;;;5072604;28;20036;-59
2023/05/01 12:47:08;;;;;;;6.82;2.85;;;17.70;66.80;;;;;;5069420;28;20652;-58